createdAt,value
2023-04-05T00:01:13.845Z,3.35
2023-04-05T00:06:17.070Z,3.30
2023-04-05T00:11:21.883Z,3.33
2023-04-05T00:16:25.159Z,3.60
2023-04-05T00:21:28.519Z,4.13
2023-04-05T00:26:33.210Z,3.58
2023-04-05T00:31:36.535Z,4.60
2023-04-05T00:36:39.838Z,4.00
2023-04-05T00:41:46.889Z,4.25
2023-04-05T00:46:52.255Z,4.00
2023-04-05T00:51:56.353Z,4.40
2023-04-05T00:57:02.079Z,4.13
2023-04-05T01:02:17.003Z,3.92
2023-04-05T01:07:30.424Z,4.00
2023-04-05T01:12:36.999Z,4.43
2023-04-05T01:17:42.063Z,4.28
2023-04-05T01:23:15.726Z,5.13
2023-04-05T01:28:42.209Z,4.60
2023-04-05T01:33:55.070Z,4.20
2023-04-05T01:39:00.534Z,3.83
2023-04-05T01:44:04.226Z,4.13
2023-04-05T01:49:09.392Z,4.03
2023-04-05T01:54:12.643Z,4.13
2023-04-05T01:59:16.296Z,4.50
2023-04-05T02:04:20.991Z,4.07
2023-04-05T02:09:24.592Z,4.10
2023-04-05T02:14:28.095Z,4.30
2023-04-05T02:19:37.724Z,4.47
2023-04-05T02:24:43.233Z,4.10
2023-04-05T02:29:47.862Z,4.78
2023-04-05T02:34:53.178Z,3.88
2023-04-05T02:40:00.045Z,4.72
2023-04-05T02:45:03.856Z,5.28
2023-04-05T02:50:10.456Z,4.70
2023-04-05T02:55:19.867Z,4.72
2023-04-05T03:00:23.835Z,4.60
2023-04-05T03:05:31.054Z,4.22
2023-04-05T03:10:39.609Z,4.10
2023-04-05T03:15:54.931Z,4.40
2023-04-05T03:21:02.192Z,5.00
2023-04-05T03:26:06.778Z,4.95
2023-04-05T03:31:15.530Z,4.65
2023-04-05T03:36:20.952Z,4.93
2023-04-05T03:41:28.603Z,4.72
2023-04-05T03:46:34.091Z,4.63
2023-04-05T03:51:39.748Z,5.22
2023-04-05T03:56:43.554Z,5.18
2023-04-05T04:01:51.295Z,5.50
2023-04-05T04:06:58.628Z,5.10
2023-04-05T04:12:04.435Z,5.20
2023-04-05T04:17:08.672Z,5.28
2023-04-05T04:22:50.454Z,5.93
2023-04-05T04:28:25.985Z,5.03
2023-04-05T04:33:40.853Z,4.70
2023-04-05T04:39:07.458Z,5.10
2023-04-05T04:44:31.261Z,4.75
2023-04-05T04:49:35.108Z,4.32
2023-04-05T04:54:42.734Z,4.13
2023-04-05T04:59:46.543Z,4.80
2023-04-05T05:04:49.912Z,6.22
2023-04-05T05:09:54.896Z,5.20
2023-04-05T05:14:58.631Z,4.70
2023-04-05T05:20:05.782Z,4.32
2023-04-05T05:25:12.704Z,4.63
2023-04-05T05:30:16.378Z,5.03
2023-04-05T05:35:20.150Z,5.47
2023-04-05T05:40:27.326Z,4.88
2023-04-05T05:45:31.211Z,4.43
2023-04-05T05:50:34.875Z,4.95
2023-04-05T05:55:40.266Z,4.82
2023-04-05T06:00:44.483Z,5.35
2023-04-05T06:05:53.366Z,4.78
2023-04-05T06:10:58.352Z,5.20
2023-04-05T06:16:03.335Z,4.72
2023-04-05T06:21:07.097Z,5.27
2023-04-05T06:26:19.032Z,3.65
2023-04-05T06:31:27.710Z,4.35
2023-04-05T06:36:34.530Z,5.25
2023-04-05T06:41:39.853Z,4.72
2023-04-05T06:46:43.487Z,4.45
2023-04-05T06:51:46.720Z,4.00
2023-04-05T06:56:51.830Z,4.60
2023-04-05T07:01:55.375Z,4.25
2023-04-05T07:06:59.124Z,4.22
2023-04-05T07:12:05.621Z,4.25
2023-04-05T07:17:09.833Z,3.85
2023-04-05T07:22:13.520Z,4.63
2023-04-05T07:27:18.614Z,5.05
2023-04-05T07:32:22.301Z,4.00
2023-04-05T07:37:27.375Z,3.80
2023-04-05T07:42:32.191Z,3.00
2023-04-05T07:47:36.233Z,3.60
2023-04-05T07:52:39.910Z,3.70
2023-04-05T07:57:44.788Z,4.13
2023-04-05T08:02:48.487Z,3.73
2023-04-05T08:07:52.338Z,3.67
2023-04-05T08:12:57.352Z,3.40
2023-04-05T08:18:01.503Z,2.63
2023-04-05T08:23:05.363Z,3.22
2023-04-05T08:28:10.293Z,2.75
2023-04-05T08:33:14.232Z,2.50
2023-04-05T08:38:17.516Z,2.45
2023-04-05T08:43:27.109Z,2.30
2023-04-05T08:48:36.423Z,3.40
2023-04-05T08:53:40.810Z,2.75
2023-04-05T08:58:50.645Z,2.42
2023-04-05T09:03:56.196Z,2.72
2023-04-05T09:08:59.739Z,2.75
2023-04-05T09:14:06.667Z,2.83
2023-04-05T09:19:11.497Z,1.67
2023-04-05T09:24:15.096Z,2.13
2023-04-05T09:29:32.142Z,2.38
2023-04-05T09:34:38.773Z,2.25
2023-04-05T09:39:46.240Z,1.50
2023-04-05T09:45:01.745Z,1.50
2023-04-05T09:50:20.520Z,1.85
2023-04-05T09:55:30.210Z,1.35
2023-04-05T10:00:38.189Z,1.70
2023-04-05T10:05:41.609Z,1.80
2023-04-05T10:10:49.024Z,1.75
2023-04-05T10:15:58.013Z,1.38
2023-04-05T10:21:02.337Z,1.88
2023-04-05T10:26:12.090Z,2.30
2023-04-05T10:31:36.230Z,2.88
2023-04-05T10:36:50.650Z,2.17
2023-04-05T10:41:57.897Z,1.85
2023-04-05T10:47:03.899Z,2.10
2023-04-05T10:52:08.025Z,1.40
2023-04-05T10:57:13.758Z,1.52
2023-04-05T11:02:19.088Z,1.63
2023-04-05T11:07:22.284Z,1.88
2023-04-05T11:13:02.442Z,1.60
2023-04-05T11:18:09.648Z,2.17
2023-04-05T11:23:14.188Z,2.60
2023-04-05T11:28:25.265Z,1.52
2023-04-05T11:33:40.174Z,2.08
2023-04-05T11:38:45.445Z,1.83
2023-04-05T11:43:51.321Z,2.53
2023-04-05T11:48:58.636Z,2.08
2023-04-05T11:54:01.991Z,2.05
2023-04-05T11:59:05.824Z,2.75
2023-04-05T12:04:10.454Z,2.65
2023-04-05T12:09:13.782Z,2.23
2023-04-05T12:14:17.106Z,1.52
2023-04-05T12:19:24.116Z,1.92
2023-04-05T12:24:27.481Z,1.52
2023-04-05T12:29:30.690Z,2.08
2023-04-05T12:34:38.210Z,1.80
2023-04-05T12:39:41.922Z,1.58
2023-04-05T12:44:45.774Z,1.80
2023-04-05T12:49:50.852Z,2.40
2023-04-05T12:54:57.249Z,1.35
2023-04-05T13:00:00.617Z,1.77
2023-04-05T13:05:05.561Z,1.88
2023-04-05T13:10:10.933Z,2.37
2023-04-05T13:15:15.598Z,2.20
2023-04-05T13:20:20.392Z,2.60
2023-04-05T13:25:23.868Z,1.97
2023-04-05T13:30:27.706Z,2.10
2023-04-05T13:35:32.343Z,2.10
2023-04-05T13:40:35.640Z,2.57
2023-04-05T13:45:39.528Z,2.33
2023-04-05T13:50:44.393Z,1.95
2023-04-05T13:55:47.623Z,1.73
2023-04-05T14:00:51.346Z,1.90
2023-04-05T14:05:56.015Z,2.30
2023-04-05T14:10:59.420Z,1.93
2023-04-05T14:16:02.991Z,2.47
2023-04-05T14:21:07.849Z,1.70
2023-04-05T14:26:11.413Z,2.23
2023-04-05T14:31:14.805Z,2.80
2023-04-05T14:36:19.768Z,2.00
2023-04-05T14:41:23.177Z,2.50
2023-04-05T14:46:26.687Z,1.58
2023-04-05T14:51:31.926Z,1.98
2023-04-05T14:56:35.551Z,2.08
2023-04-05T15:01:41.684Z,2.15
2023-04-05T15:06:47.016Z,2.45
2023-04-05T15:11:51.173Z,2.42
2023-04-05T15:16:54.611Z,2.08
2023-04-05T15:21:59.890Z,2.15
2023-04-05T15:27:03.263Z,2.90
2023-04-05T15:32:06.730Z,1.92
2023-04-05T15:37:11.572Z,1.83
2023-04-05T15:42:15.713Z,2.63
2023-04-05T15:47:19.642Z,1.85
2023-04-05T15:52:24.750Z,2.13
2023-04-05T15:57:28.529Z,2.13
2023-04-05T16:02:32.462Z,2.10
2023-04-05T16:07:37.262Z,1.92
2023-04-05T16:12:40.609Z,3.50
2023-04-05T16:17:44.322Z,1.90
2023-04-05T16:22:49.567Z,2.83
2023-04-05T16:27:53.308Z,1.90
2023-04-05T16:32:56.985Z,2.00
2023-04-05T16:38:02.725Z,2.30
2023-04-05T16:48:09.852Z,2.33
2023-04-05T16:53:16.065Z,2.53
2023-04-05T16:58:19.384Z,2.30
2023-04-05T17:03:23.413Z,3.42
2023-04-05T17:08:28.369Z,2.30
2023-04-05T17:13:31.845Z,2.40
2023-04-05T17:18:35.191Z,2.58
2023-04-05T17:23:40.000Z,2.20
2023-04-05T17:28:43.439Z,2.30
2023-04-05T17:33:50.454Z,2.40
2023-04-05T17:38:55.328Z,3.05
2023-04-05T17:43:59.578Z,2.55
2023-04-05T17:49:03.256Z,2.63
2023-04-05T17:54:08.694Z,2.25
2023-04-05T17:59:12.048Z,2.40
2023-04-05T18:04:15.603Z,2.45
2023-04-05T18:09:20.691Z,2.70
2023-04-05T18:14:24.039Z,2.33
2023-04-05T18:19:27.364Z,3.25
2023-04-05T18:24:32.508Z,3.30
2023-04-05T18:29:38.049Z,3.50
2023-04-05T18:39:46.277Z,2.75
2023-04-05T18:44:49.598Z,3.67
2023-04-05T18:49:53.164Z,3.03
2023-04-05T18:54:58.614Z,2.75
2023-04-05T19:00:03.016Z,3.58
2023-04-05T19:05:07.288Z,3.20
2023-04-05T19:10:12.706Z,3.50
2023-04-05T19:15:16.970Z,3.33
2023-04-05T19:20:20.419Z,3.63
2023-04-05T19:25:25.201Z,3.53
2023-04-05T19:30:28.554Z,3.67
2023-04-05T19:35:33.392Z,3.20
2023-04-05T19:40:39.088Z,3.97
2023-04-05T19:50:53.371Z,3.83
2023-04-05T19:56:00.515Z,4.13
2023-04-05T20:01:04.136Z,3.90
2023-04-05T20:06:10.787Z,3.42
2023-04-05T20:11:18.193Z,3.63
2023-04-05T20:16:26.669Z,3.85
2023-04-05T20:21:31.462Z,5.18
2023-04-05T20:26:36.716Z,6.78
2023-04-05T20:31:41.812Z,6.13
2023-04-05T20:36:49.310Z,4.10
2023-04-05T20:41:55.689Z,5.15
2023-04-05T20:47:00.116Z,4.45
2023-04-05T20:52:08.030Z,4.30
2023-04-05T20:57:13.325Z,4.85
2023-04-05T21:02:16.926Z,4.65
2023-04-05T21:07:20.296Z,4.40
2023-04-05T21:12:25.103Z,4.30
2023-04-05T21:17:28.554Z,5.03
2023-04-05T21:22:32.001Z,4.90
2023-04-05T21:27:36.772Z,3.83
2023-04-05T21:32:40.127Z,3.30
2023-04-05T21:37:43.463Z,4.55
2023-04-05T21:42:48.158Z,3.70
2023-04-05T21:47:52.209Z,3.75
2023-04-05T21:52:55.562Z,3.50
2023-04-05T21:58:00.494Z,3.65
2023-04-05T22:03:04.310Z,4.43
2023-04-05T22:08:08.529Z,3.97
2023-04-05T22:13:15.623Z,3.45
2023-04-05T22:18:19.137Z,3.20
2023-04-05T22:23:22.995Z,3.58
2023-04-05T22:28:28.684Z,3.65
2023-04-05T22:33:32.397Z,3.72
2023-04-05T22:38:35.997Z,3.97
2023-04-05T22:43:40.788Z,4.25
2023-04-05T22:48:44.489Z,3.50
2023-04-05T22:53:48.586Z,4.40
2023-04-05T22:58:53.411Z,3.60
2023-04-05T23:03:57.271Z,3.50
2023-04-05T23:09:01.809Z,3.67
2023-04-05T23:14:06.786Z,3.83
2023-04-05T23:19:10.557Z,3.97
2023-04-05T23:24:14.451Z,3.83
2023-04-05T23:29:20.030Z,3.75
2023-04-05T23:39:27.400Z,3.60
2023-04-05T23:44:32.700Z,3.92
2023-04-05T23:49:36.563Z,4.05
2023-04-05T23:54:39.982Z,4.60
2023-04-05T23:59:45.113Z,4.78
